sensor_id;sensor_type;location;lat;lon;timestamp;temperature;humidity
66708;DHT22;53622;0.000;0.000;2023-03-14T00:00:22;21.50;54.10
66708;DHT22;53622;0.000;0.000;2023-03-14T00:02:52;21.50;54.10
66708;DHT22;53622;0.000;0.000;2023-03-14T00:05:22;21.40;54.00
66708;DHT22;53622;0.000;0.000;2023-03-14T00:07:51;21.40;54.00
66708;DHT22;53622;0.000;0.000;2023-03-14T00:10:20;21.40;54.00
66708;DHT22;53622;0.000;0.000;2023-03-14T00:12:50;21.40;54.00
66708;DHT22;53622;0.000;0.000;2023-03-14T00:15:19;21.40;54.00
66708;DHT22;53622;0.000;0.000;2023-03-14T00:17:49;21.40;54.00
66708;DHT22;53622;0.000;0.000;2023-03-14T00:20:19;21.40;54.00
66708;DHT22;53622;0.000;0.000;2023-03-14T00:22:48;21.40;54.00
66708;DHT22;53622;0.000;0.000;2023-03-14T00:25:18;21.40;53.90
66708;DHT22;53622;0.000;0.000;2023-03-14T00:27:48;21.40;54.00
66708;DHT22;53622;0.000;0.000;2023-03-14T00:30:19;21.40;53.90
66708;DHT22;53622;0.000;0.000;2023-03-14T00:32:50;21.40;53.90
66708;DHT22;53622;0.000;0.000;2023-03-14T00:35:20;21.40;53.90
66708;DHT22;53622;0.000;0.000;2023-03-14T00:37:49;21.40;53.90
66708;DHT22;53622;0.000;0.000;2023-03-14T00:40:18;21.40;53.90
66708;DHT22;53622;0.000;0.000;2023-03-14T00:42:49;21.40;53.80
66708;DHT22;53622;0.000;0.000;2023-03-14T00:45:19;21.40;53.80
66708;DHT22;53622;0.000;0.000;2023-03-14T00:47:50;21.40;53.80
66708;DHT22;53622;0.000;0.000;2023-03-14T00:50:19;21.40;53.80
66708;DHT22;53622;0.000;0.000;2023-03-14T00:52:48;21.40;53.80
66708;DHT22;53622;0.000;0.000;2023-03-14T00:55:18;21.30;53.80
66708;DHT22;53622;0.000;0.000;2023-03-14T00:57:47;21.30;53.80
66708;DHT22;53622;0.000;0.000;2023-03-14T01:00:16;21.30;53.80
66708;DHT22;53622;0.000;0.000;2023-03-14T01:02:46;21.30;53.90
66708;DHT22;53622;0.000;0.000;2023-03-14T01:05:17;21.30;53.90
66708;DHT22;53622;0.000;0.000;2023-03-14T01:07:46;21.30;53.80
66708;DHT22;53622;0.000;0.000;2023-03-14T01:10:15;21.30;53.90
66708;DHT22;53622;0.000;0.000;2023-03-14T01:12:45;21.30;53.90
66708;DHT22;53622;0.000;0.000;2023-03-14T01:15:14;21.30;53.80
66708;DHT22;53622;0.000;0.000;2023-03-14T01:17:44;21.30;53.80
66708;DHT22;53622;0.000;0.000;2023-03-14T01:20:16;21.30;53.80
66708;DHT22;53622;0.000;0.000;2023-03-14T01:22:45;21.30;53.80
66708;DHT22;53622;0.000;0.000;2023-03-14T01:25:16;21.30;53.70
66708;DHT22;53622;0.000;0.000;2023-03-14T01:27:45;21.30;53.70
66708;DHT22;53622;0.000;0.000;2023-03-14T01:30:15;21.30;54.30
66708;DHT22;53622;0.000;0.000;2023-03-14T01:32:44;21.30;53.70
66708;DHT22;53622;0.000;0.000;2023-03-14T01:35:13;21.30;53.80
66708;DHT22;53622;0.000;0.000;2023-03-14T01:37:44;21.30;53.80
66708;DHT22;53622;0.000;0.000;2023-03-14T01:40:19;21.30;54.40
66708;DHT22;53622;0.000;0.000;2023-03-14T01:42:54;21.30;53.80
66708;DHT22;53622;0.000;0.000;2023-03-14T01:46:01;21.30;53.80
66708;DHT22;53622;0.000;0.000;2023-03-14T01:48:45;21.30;53.70
66708;DHT22;53622;0.000;0.000;2023-03-14T01:51:19;21.30;53.80
66708;DHT22;53622;0.000;0.000;2023-03-14T01:53:53;21.20;53.80
66708;DHT22;53622;0.000;0.000;2023-03-14T01:56:24;21.20;53.80
66708;DHT22;53622;0.000;0.000;2023-03-14T01:58:53;21.20;53.80
66708;DHT22;53622;0.000;0.000;2023-03-14T02:01:25;21.20;53.80
66708;DHT22;53622;0.000;0.000;2023-03-14T02:03:57;21.20;53.80
66708;DHT22;53622;0.000;0.000;2023-03-14T02:06:38;21.20;53.80
66708;DHT22;53622;0.000;0.000;2023-03-14T02:09:11;21.20;53.80
66708;DHT22;53622;0.000;0.000;2023-03-14T02:11:40;21.20;53.80
66708;DHT22;53622;0.000;0.000;2023-03-14T02:14:32;21.20;53.80
66708;DHT22;53622;0.000;0.000;2023-03-14T02:17:18;21.20;53.80
66708;DHT22;53622;0.000;0.000;2023-03-14T02:20:21;21.20;53.80
66708;DHT22;53622;0.000;0.000;2023-03-14T02:22:55;21.20;53.80
66708;DHT22;53622;0.000;0.000;2023-03-14T02:25:38;21.10;53.80
66708;DHT22;53622;0.000;0.000;2023-03-14T02:28:13;21.10;53.80
66708;DHT22;53622;0.000;0.000;2023-03-14T02:30:42;21.10;53.80
66708;DHT22;53622;0.000;0.000;2023-03-14T02:33:14;21.10;53.80
66708;DHT22;53622;0.000;0.000;2023-03-14T02:35:49;21.10;53.80
66708;DHT22;53622;0.000;0.000;2023-03-14T02:38:23;21.10;53.80
66708;DHT22;53622;0.000;0.000;2023-03-14T02:40:53;21.10;53.80
66708;DHT22;53622;0.000;0.000;2023-03-14T02:43:24;21.10;53.80
66708;DHT22;53622;0.000;0.000;2023-03-14T02:46:00;21.10;53.70
66708;DHT22;53622;0.000;0.000;2023-03-14T02:48:34;21.10;53.70
66708;DHT22;53622;0.000;0.000;2023-03-14T02:51:05;21.10;53.60
66708;DHT22;53622;0.000;0.000;2023-03-14T02:53:36;21.10;53.60
66708;DHT22;53622;0.000;0.000;2023-03-14T02:56:10;21.10;53.60
66708;DHT22;53622;0.000;0.000;2023-03-14T02:58:41;21.10;53.70
66708;DHT22;53622;0.000;0.000;2023-03-14T03:01:25;21.10;53.60
66708;DHT22;53622;0.000;0.000;2023-03-14T03:03:54;21.10;53.60
66708;DHT22;53622;0.000;0.000;2023-03-14T03:06:23;21.10;53.60
66708;DHT22;53622;0.000;0.000;2023-03-14T03:08:53;21.10;53.60
66708;DHT22;53622;0.000;0.000;2023-03-14T03:11:23;21.10;53.60
66708;DHT22;53622;0.000;0.000;2023-03-14T03:13:54;21.10;53.50
66708;DHT22;53622;0.000;0.000;2023-03-14T03:16:23;21.10;53.60
66708;DHT22;53622;0.000;0.000;2023-03-14T03:18:53;21.10;53.50
66708;DHT22;53622;0.000;0.000;2023-03-14T03:21:22;21.10;53.50
66708;DHT22;53622;0.000;0.000;2023-03-14T03:23:52;21.10;53.50
66708;DHT22;53622;0.000;0.000;2023-03-14T03:26:21;21.10;53.50
66708;DHT22;53622;0.000;0.000;2023-03-14T03:28:51;21.00;53.40
66708;DHT22;53622;0.000;0.000;2023-03-14T03:31:23;21.00;53.40
66708;DHT22;53622;0.000;0.000;2023-03-14T03:33:52;21.10;54.00
66708;DHT22;53622;0.000;0.000;2023-03-14T03:36:22;21.00;53.40
66708;DHT22;53622;0.000;0.000;2023-03-14T03:38:51;21.00;53.40
66708;DHT22;53622;0.000;0.000;2023-03-14T03:41:21;21.00;53.30
66708;DHT22;53622;0.000;0.000;2023-03-14T03:43:51;21.00;53.30
66708;DHT22;53622;0.000;0.000;2023-03-14T03:46:23;21.00;53.30
66708;DHT22;53622;0.000;0.000;2023-03-14T03:48:54;21.00;53.30
66708;DHT22;53622;0.000;0.000;2023-03-14T03:51:25;21.00;53.30
66708;DHT22;53622;0.000;0.000;2023-03-14T03:53:56;21.00;53.30
66708;DHT22;53622;0.000;0.000;2023-03-14T03:56:32;21.00;53.50
66708;DHT22;53622;0.000;0.000;2023-03-14T03:59:01;21.00;53.30
66708;DHT22;53622;0.000;0.000;2023-03-14T04:01:32;21.00;53.40
66708;DHT22;53622;0.000;0.000;2023-03-14T04:04:02;21.00;53.40
66708;DHT22;53622;0.000;0.000;2023-03-14T04:06:32;21.00;53.40
66708;DHT22;53622;0.000;0.000;2023-03-14T04:09:01;21.00;53.40
66708;DHT22;53622;0.000;0.000;2023-03-14T04:11:38;21.00;53.30
66708;DHT22;53622;0.000;0.000;2023-03-14T04:14:31;21.00;53.30
66708;DHT22;53622;0.000;0.000;2023-03-14T04:17:14;21.00;53.30
66708;DHT22;53622;0.000;0.000;2023-03-14T04:19:44;21.00;53.30
66708;DHT22;53622;0.000;0.000;2023-03-14T04:22:13;21.00;53.30
66708;DHT22;53622;0.000;0.000;2023-03-14T04:24:47;21.00;53.30
66708;DHT22;53622;0.000;0.000;2023-03-14T04:27:16;21.00;53.20
66708;DHT22;53622;0.000;0.000;2023-03-14T04:29:46;21.00;53.20
66708;DHT22;53622;0.000;0.000;2023-03-14T04:32:21;21.00;53.20
66708;DHT22;53622;0.000;0.000;2023-03-14T04:34:51;21.00;53.20
66708;DHT22;53622;0.000;0.000;2023-03-14T04:37:20;21.00;53.20
66708;DHT22;53622;0.000;0.000;2023-03-14T04:39:49;21.00;53.10
66708;DHT22;53622;0.000;0.000;2023-03-14T04:42:27;21.00;53.10
66708;DHT22;53622;0.000;0.000;2023-03-14T04:44:57;20.90;53.10
66708;DHT22;53622;0.000;0.000;2023-03-14T04:47:29;20.90;53.00
66708;DHT22;53622;0.000;0.000;2023-03-14T04:50:00;20.90;53.00
66708;DHT22;53622;0.000;0.000;2023-03-14T04:52:29;20.90;53.60
66708;DHT22;53622;0.000;0.000;2023-03-14T04:55:00;20.90;53.10
66708;DHT22;53622;0.000;0.000;2023-03-14T04:57:29;20.90;53.00
66708;DHT22;53622;0.000;0.000;2023-03-14T04:59:59;20.90;53.00
66708;DHT22;53622;0.000;0.000;2023-03-14T05:02:48;20.90;53.00
66708;DHT22;53622;0.000;0.000;2023-03-14T05:05:40;20.90;52.90
66708;DHT22;53622;0.000;0.000;2023-03-14T05:08:35;20.90;53.00
66708;DHT22;53622;0.000;0.000;2023-03-14T05:11:23;20.90;53.00
66708;DHT22;53622;0.000;0.000;2023-03-14T05:14:01;20.90;53.00
66708;DHT22;53622;0.000;0.000;2023-03-14T05:16:53;20.90;53.10
66708;DHT22;53622;0.000;0.000;2023-03-14T05:19:44;20.90;53.20
66708;DHT22;53622;0.000;0.000;2023-03-14T05:22:29;20.90;53.20
66708;DHT22;53622;0.000;0.000;2023-03-14T05:25:21;20.90;53.20
66708;DHT22;53622;0.000;0.000;2023-03-14T05:28:09;21.00;53.90
66708;DHT22;53622;0.000;0.000;2023-03-14T05:30:45;21.10;54.50
66708;DHT22;53622;0.000;0.000;2023-03-14T05:33:20;21.20;54.40
66708;DHT22;53622;0.000;0.000;2023-03-14T05:36:11;21.20;54.60
66708;DHT22;53622;0.000;0.000;2023-03-14T05:38:55;21.30;54.60
66708;DHT22;53622;0.000;0.000;2023-03-14T05:41:36;21.30;54.90
66708;DHT22;53622;0.000;0.000;2023-03-14T05:44:25;21.40;54.90
66708;DHT22;53622;0.000;0.000;2023-03-14T05:47:14;21.40;54.80
66708;DHT22;53622;0.000;0.000;2023-03-14T05:49:43;21.40;54.60
66708;DHT22;53622;0.000;0.000;2023-03-14T05:52:44;21.40;54.80
66708;DHT22;53622;0.000;0.000;2023-03-14T05:55:31;21.50;54.70
66708;DHT22;53622;0.000;0.000;2023-03-14T05:58:19;21.50;54.60
66708;DHT22;53622;0.000;0.000;2023-03-14T06:01:09;21.50;54.70
66708;DHT22;53622;0.000;0.000;2023-03-14T06:04:02;21.60;54.50
66708;DHT22;53622;0.000;0.000;2023-03-14T06:06:32;21.60;54.30
66708;DHT22;53622;0.000;0.000;2023-03-14T06:09:04;21.60;54.20
66708;DHT22;53622;0.000;0.000;2023-03-14T06:11:37;21.60;54.10
66708;DHT22;53622;0.000;0.000;2023-03-14T06:14:07;21.70;54.10
66708;DHT22;53622;0.000;0.000;2023-03-14T06:16:40;21.70;54.10
66708;DHT22;53622;0.000;0.000;2023-03-14T06:19:11;21.80;54.20
66708;DHT22;53622;0.000;0.000;2023-03-14T06:21:42;21.80;53.70
66708;DHT22;53622;0.000;0.000;2023-03-14T06:24:13;21.70;52.70
66708;DHT22;53622;0.000;0.000;2023-03-14T06:26:46;21.70;53.00
66708;DHT22;53622;0.000;0.000;2023-03-14T06:29:16;21.80;53.30
66708;DHT22;53622;0.000;0.000;2023-03-14T06:31:46;21.80;53.60
66708;DHT22;53622;0.000;0.000;2023-03-14T06:34:17;21.80;53.90
66708;DHT22;53622;0.000;0.000;2023-03-14T06:36:47;21.80;54.10
66708;DHT22;53622;0.000;0.000;2023-03-14T06:39:17;21.90;53.90
66708;DHT22;53622;0.000;0.000;2023-03-14T06:41:52;21.90;53.90
66708;DHT22;53622;0.000;0.000;2023-03-14T06:44:22;21.90;54.00
66708;DHT22;53622;0.000;0.000;2023-03-14T06:46:51;21.90;54.20
66708;DHT22;53622;0.000;0.000;2023-03-14T06:49:21;21.90;54.20
66708;DHT22;53622;0.000;0.000;2023-03-14T06:51:54;22.00;53.90
66708;DHT22;53622;0.000;0.000;2023-03-14T06:54:26;22.00;54.00
66708;DHT22;53622;0.000;0.000;2023-03-14T06:56:55;22.00;53.90
66708;DHT22;53622;0.000;0.000;2023-03-14T06:59:25;22.00;54.00
66708;DHT22;53622;0.000;0.000;2023-03-14T07:01:54;22.00;53.80
66708;DHT22;53622;0.000;0.000;2023-03-14T07:04:23;22.00;53.80
66708;DHT22;53622;0.000;0.000;2023-03-14T07:06:53;22.00;53.50
66708;DHT22;53622;0.000;0.000;2023-03-14T07:09:22;22.10;53.50
66708;DHT22;53622;0.000;0.000;2023-03-14T07:11:58;22.00;53.50
66708;DHT22;53622;0.000;0.000;2023-03-14T07:14:28;22.10;53.50
66708;DHT22;53622;0.000;0.000;2023-03-14T07:16:59;22.10;54.20
66708;DHT22;53622;0.000;0.000;2023-03-14T07:19:28;22.10;53.40
66708;DHT22;53622;0.000;0.000;2023-03-14T07:21:58;22.10;53.70
66708;DHT22;53622;0.000;0.000;2023-03-14T07:24:29;22.10;53.90
66708;DHT22;53622;0.000;0.000;2023-03-14T07:26:59;22.10;53.90
66708;DHT22;53622;0.000;0.000;2023-03-14T07:29:29;22.10;53.90
66708;DHT22;53622;0.000;0.000;2023-03-14T07:32:00;22.10;53.80
66708;DHT22;53622;0.000;0.000;2023-03-14T07:34:30;22.20;53.80
66708;DHT22;53622;0.000;0.000;2023-03-14T07:37:00;22.10;53.80
66708;DHT22;53622;0.000;0.000;2023-03-14T07:39:29;22.20;53.80
66708;DHT22;53622;0.000;0.000;2023-03-14T07:42:05;22.20;53.80
66708;DHT22;53622;0.000;0.000;2023-03-14T07:44:48;22.20;53.60
66708;DHT22;53622;0.000;0.000;2023-03-14T07:47:17;22.20;53.60
66708;DHT22;53622;0.000;0.000;2023-03-14T07:49:47;22.20;53.70
66708;DHT22;53622;0.000;0.000;2023-03-14T07:52:16;22.30;53.60
66708;DHT22;53622;0.000;0.000;2023-03-14T07:54:45;22.20;53.50
66708;DHT22;53622;0.000;0.000;2023-03-14T07:57:16;22.30;53.50
66708;DHT22;53622;0.000;0.000;2023-03-14T07:59:45;22.30;53.40
66708;DHT22;53622;0.000;0.000;2023-03-14T08:02:15;22.30;53.50
66708;DHT22;53622;0.000;0.000;2023-03-14T08:04:45;22.30;53.20
66708;DHT22;53622;0.000;0.000;2023-03-14T08:07:15;22.30;53.30
66708;DHT22;53622;0.000;0.000;2023-03-14T08:09:44;22.30;53.00
66708;DHT22;53622;0.000;0.000;2023-03-14T08:12:14;22.40;53.10
66708;DHT22;53622;0.000;0.000;2023-03-14T08:14:44;22.40;53.20
66708;DHT22;53622;0.000;0.000;2023-03-14T08:17:14;22.40;53.20
66708;DHT22;53622;0.000;0.000;2023-03-14T08:19:43;22.30;53.20
66708;DHT22;53622;0.000;0.000;2023-03-14T08:22:12;22.40;53.20
66708;DHT22;53622;0.000;0.000;2023-03-14T08:24:45;22.30;53.20
66708;DHT22;53622;0.000;0.000;2023-03-14T08:27:16;22.40;53.20
66708;DHT22;53622;0.000;0.000;2023-03-14T08:29:45;22.40;53.20
66708;DHT22;53622;0.000;0.000;2023-03-14T08:32:15;22.40;53.20
66708;DHT22;53622;0.000;0.000;2023-03-14T08:34:44;22.40;53.30
66708;DHT22;53622;0.000;0.000;2023-03-14T08:37:13;22.40;53.20
66708;DHT22;53622;0.000;0.000;2023-03-14T08:39:53;22.40;53.00
66708;DHT22;53622;0.000;0.000;2023-03-14T08:42:25;22.40;53.10
66708;DHT22;53622;0.000;0.000;2023-03-14T08:44:54;22.40;53.20
66708;DHT22;53622;0.000;0.000;2023-03-14T08:47:23;22.40;53.20
66708;DHT22;53622;0.000;0.000;2023-03-14T08:49:53;22.40;53.00
66708;DHT22;53622;0.000;0.000;2023-03-14T08:52:22;22.40;53.70
66708;DHT22;53622;0.000;0.000;2023-03-14T08:54:51;22.40;53.10
66708;DHT22;53622;0.000;0.000;2023-03-14T08:57:21;22.50;53.20
66708;DHT22;53622;0.000;0.000;2023-03-14T08:59:57;22.40;53.20
66708;DHT22;53622;0.000;0.000;2023-03-14T09:02:26;22.40;52.90
66708;DHT22;53622;0.000;0.000;2023-03-14T09:04:56;22.40;53.10
66708;DHT22;53622;0.000;0.000;2023-03-14T09:07:25;22.40;53.10
66708;DHT22;53622;0.000;0.000;2023-03-14T09:09:55;22.40;53.10
66708;DHT22;53622;0.000;0.000;2023-03-14T09:12:27;22.40;53.10
66708;DHT22;53622;0.000;0.000;2023-03-14T09:15:00;22.40;53.10
66708;DHT22;53622;0.000;0.000;2023-03-14T09:17:30;22.40;53.10
66708;DHT22;53622;0.000;0.000;2023-03-14T09:20:00;22.50;53.00
66708;DHT22;53622;0.000;0.000;2023-03-14T09:22:31;22.50;53.00
66708;DHT22;53622;0.000;0.000;2023-03-14T09:25:03;22.50;53.00
66708;DHT22;53622;0.000;0.000;2023-03-14T09:27:32;22.50;52.80
66708;DHT22;53622;0.000;0.000;2023-03-14T09:30:04;22.50;52.80
66708;DHT22;53622;0.000;0.000;2023-03-14T09:32:33;22.50;52.80
66708;DHT22;53622;0.000;0.000;2023-03-14T09:35:03;22.50;52.90
66708;DHT22;53622;0.000;0.000;2023-03-14T09:37:32;22.50;52.90
66708;DHT22;53622;0.000;0.000;2023-03-14T09:40:02;22.60;52.90
66708;DHT22;53622;0.000;0.000;2023-03-14T09:42:38;22.60;52.90
66708;DHT22;53622;0.000;0.000;2023-03-14T09:45:15;22.60;52.90
66708;DHT22;53622;0.000;0.000;2023-03-14T09:47:46;22.60;52.80
66708;DHT22;53622;0.000;0.000;2023-03-14T09:50:29;22.60;52.70
66708;DHT22;53622;0.000;0.000;2023-03-14T09:53:03;22.60;52.80
66708;DHT22;53622;0.000;0.000;2023-03-14T09:55:32;22.60;52.70
66708;DHT22;53622;0.000;0.000;2023-03-14T09:58:08;22.60;52.70
66708;DHT22;53622;0.000;0.000;2023-03-14T10:00:40;22.60;52.60
66708;DHT22;53622;0.000;0.000;2023-03-14T10:03:33;22.70;52.60
66708;DHT22;53622;0.000;0.000;2023-03-14T10:06:08;22.70;52.70
66708;DHT22;53622;0.000;0.000;2023-03-14T10:08:39;22.60;52.60
66708;DHT22;53622;0.000;0.000;2023-03-14T10:11:14;22.70;52.70
66708;DHT22;53622;0.000;0.000;2023-03-14T10:13:50;22.70;52.60
66708;DHT22;53622;0.000;0.000;2023-03-14T10:16:28;22.70;52.60
66708;DHT22;53622;0.000;0.000;2023-03-14T10:19:03;22.70;52.70
66708;DHT22;53622;0.000;0.000;2023-03-14T10:21:37;22.70;52.70
66708;DHT22;53622;0.000;0.000;2023-03-14T10:24:08;22.70;52.60
66708;DHT22;53622;0.000;0.000;2023-03-14T10:26:38;22.70;52.60
66708;DHT22;53622;0.000;0.000;2023-03-14T10:29:11;22.70;52.60
66708;DHT22;53622;0.000;0.000;2023-03-14T10:31:50;22.70;52.70
66708;DHT22;53622;0.000;0.000;2023-03-14T10:34:25;22.70;52.60
66708;DHT22;53622;0.000;0.000;2023-03-14T10:36:57;22.70;52.60
66708;DHT22;53622;0.000;0.000;2023-03-14T10:39:31;22.70;52.60
66708;DHT22;53622;0.000;0.000;2023-03-14T10:42:09;22.80;52.50
66708;DHT22;53622;0.000;0.000;2023-03-14T10:44:41;22.80;52.50
66708;DHT22;53622;0.000;0.000;2023-03-14T10:47:19;22.80;52.50
66708;DHT22;53622;0.000;0.000;2023-03-14T10:49:48;22.80;52.50
66708;DHT22;53622;0.000;0.000;2023-03-14T10:52:22;22.80;52.50
66708;DHT22;53622;0.000;0.000;2023-03-14T10:55:12;22.80;52.40
66708;DHT22;53622;0.000;0.000;2023-03-14T10:57:43;22.80;52.40
66708;DHT22;53622;0.000;0.000;2023-03-14T11:00:16;22.80;52.40
66708;DHT22;53622;0.000;0.000;2023-03-14T11:03:05;22.80;52.30
66708;DHT22;53622;0.000;0.000;2023-03-14T11:05:40;22.80;52.30
66708;DHT22;53622;0.000;0.000;2023-03-14T11:08:16;22.80;52.30
66708;DHT22;53622;0.000;0.000;2023-03-14T11:10:51;22.80;52.60
66708;DHT22;53622;0.000;0.000;2023-03-14T11:13:26;22.80;52.20
66708;DHT22;53622;0.000;0.000;2023-03-14T11:16:01;22.80;52.10
66708;DHT22;53622;0.000;0.000;2023-03-14T11:21:57;22.80;52.20
66708;DHT22;53622;0.000;0.000;2023-03-14T11:24:40;22.80;52.20
66708;DHT22;53622;0.000;0.000;2023-03-14T11:27:17;22.80;52.30
66708;DHT22;53622;0.000;0.000;2023-03-14T11:29:54;22.80;52.20
66708;DHT22;53622;0.000;0.000;2023-03-14T11:32:36;22.80;52.20
66708;DHT22;53622;0.000;0.000;2023-03-14T11:35:16;22.90;52.00
66708;DHT22;53622;0.000;0.000;2023-03-14T11:37:52;22.90;51.90
66708;DHT22;53622;0.000;0.000;2023-03-14T11:40:26;22.90;52.00
66708;DHT22;53622;0.000;0.000;2023-03-14T11:43:04;22.90;52.10
66708;DHT22;53622;0.000;0.000;2023-03-14T11:45:36;22.90;52.10
66708;DHT22;53622;0.000;0.000;2023-03-14T11:48:16;22.90;51.90
66708;DHT22;53622;0.000;0.000;2023-03-14T11:50:50;22.90;52.10
66708;DHT22;53622;0.000;0.000;2023-03-14T11:53:33;23.00;51.90
66708;DHT22;53622;0.000;0.000;2023-03-14T11:56:04;23.00;51.90
66708;DHT22;53622;0.000;0.000;2023-03-14T11:58:43;23.00;51.90
66708;DHT22;53622;0.000;0.000;2023-03-14T12:01:17;23.00;51.90
66708;DHT22;53622;0.000;0.000;2023-03-14T12:03:55;23.00;51.70
66708;DHT22;53622;0.000;0.000;2023-03-14T12:06:29;23.00;51.70
66708;DHT22;53622;0.000;0.000;2023-03-14T12:09:02;23.00;51.90
66708;DHT22;53622;0.000;0.000;2023-03-14T12:11:39;23.00;51.90
66708;DHT22;53622;0.000;0.000;2023-03-14T12:14:22;23.00;51.90
66708;DHT22;53622;0.000;0.000;2023-03-14T12:16:54;23.00;51.80
66708;DHT22;53622;0.000;0.000;2023-03-14T12:19:39;23.10;51.90
66708;DHT22;53622;0.000;0.000;2023-03-14T12:22:26;23.00;51.80
66708;DHT22;53622;0.000;0.000;2023-03-14T12:25:04;23.10;51.90
66708;DHT22;53622;0.000;0.000;2023-03-14T12:27:44;23.10;51.90
66708;DHT22;53622;0.000;0.000;2023-03-14T12:30:24;23.10;51.70
66708;DHT22;53622;0.000;0.000;2023-03-14T12:33:20;23.10;51.70
66708;DHT22;53622;0.000;0.000;2023-03-14T12:35:51;23.10;52.40
66708;DHT22;53622;0.000;0.000;2023-03-14T12:38:29;23.10;51.80
66708;DHT22;53622;0.000;0.000;2023-03-14T12:41:05;23.00;51.80
66708;DHT22;53622;0.000;0.000;2023-03-14T12:43:35;23.10;51.80
66708;DHT22;53622;0.000;0.000;2023-03-14T12:46:15;23.00;51.70
66708;DHT22;53622;0.000;0.000;2023-03-14T12:48:49;23.10;51.70
66708;DHT22;53622;0.000;0.000;2023-03-14T12:51:20;23.10;51.70
66708;DHT22;53622;0.000;0.000;2023-03-14T12:54:07;23.10;51.60
66708;DHT22;53622;0.000;0.000;2023-03-14T12:56:51;23.10;51.70
66708;DHT22;53622;0.000;0.000;2023-03-14T12:59:29;23.10;51.50
66708;DHT22;53622;0.000;0.000;2023-03-14T13:02:21;23.00;51.40
66708;DHT22;53622;0.000;0.000;2023-03-14T13:04:54;23.00;51.50
66708;DHT22;53622;0.000;0.000;2023-03-14T13:07:35;23.00;51.70
66708;DHT22;53622;0.000;0.000;2023-03-14T13:10:20;23.00;51.70
66708;DHT22;53622;0.000;0.000;2023-03-14T13:12:54;22.90;51.80
66708;DHT22;53622;0.000;0.000;2023-03-14T13:15:28;22.90;51.90
66708;DHT22;53622;0.000;0.000;2023-03-14T13:18:02;22.90;52.10
66708;DHT22;53622;0.000;0.000;2023-03-14T13:20:35;22.80;51.90
66708;DHT22;53622;0.000;0.000;2023-03-14T13:23:17;22.80;52.00
66708;DHT22;53622;0.000;0.000;2023-03-14T13:25:48;22.80;52.10
66708;DHT22;53622;0.000;0.000;2023-03-14T13:28:21;22.80;52.00
66708;DHT22;53622;0.000;0.000;2023-03-14T13:30:55;22.80;52.10
66708;DHT22;53622;0.000;0.000;2023-03-14T13:36:10;22.70;52.10
66708;DHT22;53622;0.000;0.000;2023-03-14T13:38:40;22.80;52.20
66708;DHT22;53622;0.000;0.000;2023-03-14T13:41:11;22.80;52.20
66708;DHT22;53622;0.000;0.000;2023-03-14T13:43:43;22.70;52.10
66708;DHT22;53622;0.000;0.000;2023-03-14T13:46:15;22.70;52.20
66708;DHT22;53622;0.000;0.000;2023-03-14T13:48:47;22.70;52.20
66708;DHT22;53622;0.000;0.000;2023-03-14T13:51:21;22.70;52.30
66708;DHT22;53622;0.000;0.000;2023-03-14T13:53:54;22.60;52.20
66708;DHT22;53622;0.000;0.000;2023-03-14T13:56:26;22.60;52.20
66708;DHT22;53622;0.000;0.000;2023-03-14T13:58:56;22.60;52.20
66708;DHT22;53622;0.000;0.000;2023-03-14T14:01:28;22.60;52.20
66708;DHT22;53622;0.000;0.000;2023-03-14T14:04:06;22.60;52.20
66708;DHT22;53622;0.000;0.000;2023-03-14T14:06:39;22.60;52.20
66708;DHT22;53622;0.000;0.000;2023-03-14T14:09:20;22.60;52.20
66708;DHT22;53622;0.000;0.000;2023-03-14T14:11:55;22.60;52.20
66708;DHT22;53622;0.000;0.000;2023-03-14T14:14:44;22.60;52.20
66708;DHT22;53622;0.000;0.000;2023-03-14T14:17:19;22.60;52.20
66708;DHT22;53622;0.000;0.000;2023-03-14T14:19:50;22.50;52.20
66708;DHT22;53622;0.000;0.000;2023-03-14T14:22:21;22.50;52.20
66708;DHT22;53622;0.000;0.000;2023-03-14T14:24:51;22.50;52.20
66708;DHT22;53622;0.000;0.000;2023-03-14T14:27:27;22.50;52.20
66708;DHT22;53622;0.000;0.000;2023-03-14T14:30:01;22.50;52.20
66708;DHT22;53622;0.000;0.000;2023-03-14T14:32:35;22.50;52.20
66708;DHT22;53622;0.000;0.000;2023-03-14T14:35:06;22.50;52.20
66708;DHT22;53622;0.000;0.000;2023-03-14T14:37:42;22.50;52.00
66708;DHT22;53622;0.000;0.000;2023-03-14T14:40:18;22.50;52.00
66708;DHT22;53622;0.000;0.000;2023-03-14T14:42:48;22.50;52.00
66708;DHT22;53622;0.000;0.000;2023-03-14T14:45:19;22.40;51.90
66708;DHT22;53622;0.000;0.000;2023-03-14T14:47:51;22.40;52.00
66708;DHT22;53622;0.000;0.000;2023-03-14T14:50:28;22.40;52.00
66708;DHT22;53622;0.000;0.000;2023-03-14T14:53:02;22.40;52.00
66708;DHT22;53622;0.000;0.000;2023-03-14T14:55:33;22.40;52.10
66708;DHT22;53622;0.000;0.000;2023-03-14T14:58:14;22.30;52.00
66708;DHT22;53622;0.000;0.000;2023-03-14T15:00:55;22.40;52.10
66708;DHT22;53622;0.000;0.000;2023-03-14T15:03:27;22.30;52.00
66708;DHT22;53622;0.000;0.000;2023-03-14T15:05:58;22.30;52.00
66708;DHT22;53622;0.000;0.000;2023-03-14T15:08:29;22.30;52.00
66708;DHT22;53622;0.000;0.000;2023-03-14T15:10:58;22.30;51.90
66708;DHT22;53622;0.000;0.000;2023-03-14T15:13:28;22.40;52.00
66708;DHT22;53622;0.000;0.000;2023-03-14T15:15:57;22.40;51.90
66708;DHT22;53622;0.000;0.000;2023-03-14T15:18:28;22.40;52.00
66708;DHT22;53622;0.000;0.000;2023-03-14T15:20:58;22.30;51.90
66708;DHT22;53622;0.000;0.000;2023-03-14T15:23:29;22.30;51.90
66708;DHT22;53622;0.000;0.000;2023-03-14T15:25:58;22.30;51.90
66708;DHT22;53622;0.000;0.000;2023-03-14T15:28:29;22.30;51.90
66708;DHT22;53622;0.000;0.000;2023-03-14T15:30:59;22.30;51.90
66708;DHT22;53622;0.000;0.000;2023-03-14T15:33:28;22.30;51.90
66708;DHT22;53622;0.000;0.000;2023-03-14T15:35:57;22.30;51.80
66708;DHT22;53622;0.000;0.000;2023-03-14T15:38:30;22.30;51.70
66708;DHT22;53622;0.000;0.000;2023-03-14T15:40:59;22.30;51.70
66708;DHT22;53622;0.000;0.000;2023-03-14T15:43:28;22.30;51.70
66708;DHT22;53622;0.000;0.000;2023-03-14T15:45:57;22.30;51.70
66708;DHT22;53622;0.000;0.000;2023-03-14T15:48:27;22.30;51.80
66708;DHT22;53622;0.000;0.000;2023-03-14T15:50:56;22.30;51.80
66708;DHT22;53622;0.000;0.000;2023-03-14T15:53:25;22.20;51.80
66708;DHT22;53622;0.000;0.000;2023-03-14T15:55:56;22.20;51.80
66708;DHT22;53622;0.000;0.000;2023-03-14T15:58:26;22.30;51.70
66708;DHT22;53622;0.000;0.000;2023-03-14T16:00:55;22.20;51.50
66708;DHT22;53622;0.000;0.000;2023-03-14T16:03:24;22.20;51.40
66708;DHT22;53622;0.000;0.000;2023-03-14T16:05:54;22.20;51.40
66708;DHT22;53622;0.000;0.000;2023-03-14T16:08:23;22.20;51.40
66708;DHT22;53622;0.000;0.000;2023-03-14T16:10:57;22.20;51.50
66708;DHT22;53622;0.000;0.000;2023-03-14T16:13:27;22.20;51.40
66708;DHT22;53622;0.000;0.000;2023-03-14T16:15:59;22.10;51.30
66708;DHT22;53622;0.000;0.000;2023-03-14T16:18:29;22.10;51.10
66708;DHT22;53622;0.000;0.000;2023-03-14T16:21:00;22.10;51.10
66708;DHT22;53622;0.000;0.000;2023-03-14T16:23:32;22.10;51.00
66708;DHT22;53622;0.000;0.000;2023-03-14T16:26:06;22.10;50.90
66708;DHT22;53622;0.000;0.000;2023-03-14T16:28:36;22.10;50.90
66708;DHT22;53622;0.000;0.000;2023-03-14T16:31:06;22.10;50.90